createdAt,value
2022-09-02T00:01:15.003Z,10.06
2022-09-02T00:03:43.973Z,10.04
2022-09-02T00:06:11.021Z,10.02
2022-09-02T00:08:38.243Z,9.96
2022-09-02T00:11:05.156Z,10.02
2022-09-02T00:13:32.699Z,10.03
2022-09-02T00:15:59.459Z,9.94
2022-09-02T00:18:26.083Z,10.01
2022-09-02T00:20:54.175Z,9.94
2022-09-02T00:23:21.687Z,9.96
2022-09-02T00:25:48.349Z,9.88
2022-09-02T00:28:16.622Z,9.93
2022-09-02T00:30:44.283Z,9.96
2022-09-02T00:33:11.724Z,9.93
2022-09-02T00:35:38.759Z,9.95
2022-09-02T00:38:07.619Z,9.96
2022-09-02T00:40:35.260Z,9.93
2022-09-02T00:43:06.096Z,9.78
2022-09-02T00:45:32.725Z,9.77
2022-09-02T00:47:59.394Z,9.78
2022-09-02T00:50:29.860Z,9.80
2022-09-02T00:53:02.582Z,9.81
2022-09-02T00:55:34.943Z,9.82
2022-09-02T00:58:04.640Z,9.80
2022-09-02T01:00:39.418Z,9.80
2022-09-02T01:03:08.975Z,9.76
2022-09-02T01:05:43.624Z,9.74
2022-09-02T01:08:11.167Z,9.66
2022-09-02T01:10:39.486Z,9.58
2022-09-02T01:13:09.280Z,9.53
2022-09-02T01:15:38.257Z,9.53
2022-09-02T01:18:08.848Z,9.60
2022-09-02T01:20:35.746Z,9.61
2022-09-02T01:23:03.681Z,9.56
2022-09-02T01:25:33.343Z,9.53
2022-09-02T01:28:01.877Z,9.57
2022-09-02T01:30:29.707Z,9.60
2022-09-02T01:32:56.449Z,9.60
2022-09-02T01:35:23.312Z,9.48
2022-09-02T01:37:55.651Z,9.50
2022-09-02T01:40:25.697Z,9.41
2022-09-02T01:42:55.986Z,9.42
2022-09-02T01:45:23.109Z,9.36
2022-09-02T01:47:49.729Z,9.35
2022-09-02T01:50:16.333Z,9.34
2022-09-02T01:52:42.934Z,9.30
2022-09-02T01:55:09.925Z,9.40
2022-09-02T01:57:37.855Z,9.38
2022-09-02T02:00:06.264Z,9.29
2022-09-02T02:02:32.848Z,9.27
2022-09-02T02:05:00.079Z,9.30
2022-09-02T02:07:26.632Z,9.35
2022-09-02T02:09:53.213Z,9.34
2022-09-02T02:12:20.177Z,9.34
2022-09-02T02:14:48.182Z,9.36
2022-09-02T02:17:15.152Z,9.22
2022-09-02T02:19:42.207Z,9.22
2022-09-02T02:22:08.776Z,9.16
2022-09-02T02:24:35.438Z,9.19
2022-09-02T02:27:02.386Z,9.19
2022-09-02T02:29:29.084Z,9.04
2022-09-02T02:31:57.062Z,8.97
2022-09-02T02:34:23.629Z,8.95
2022-09-02T02:36:50.175Z,8.88
2022-09-02T02:39:16.737Z,8.86
2022-09-02T02:41:44.839Z,8.79
2022-09-02T02:44:11.655Z,8.69
2022-09-02T02:46:38.257Z,8.83
2022-09-02T02:49:06.354Z,8.69
2022-09-02T02:51:33.057Z,8.74
2022-09-02T02:53:59.689Z,8.66
2022-09-02T02:56:26.242Z,8.69
2022-09-02T02:58:52.786Z,8.63
2022-09-02T03:01:19.366Z,8.66
2022-09-02T03:03:45.924Z,8.45
2022-09-02T03:06:13.857Z,8.60
2022-09-02T03:08:40.403Z,8.68
2022-09-02T03:11:06.933Z,8.64
2022-09-02T03:13:34.843Z,8.59
2022-09-02T03:16:03.524Z,8.61
2022-09-02T03:18:30.176Z,8.54
2022-09-02T03:20:56.736Z,8.52
2022-09-02T03:23:24.617Z,8.59
2022-09-02T03:25:51.224Z,8.69
2022-09-02T03:28:18.034Z,8.63
2022-09-02T03:30:46.461Z,8.60
2022-09-02T03:33:12.981Z,8.63
2022-09-02T03:35:41.895Z,8.55
2022-09-02T03:38:09.586Z,8.55
2022-09-02T03:40:38.115Z,8.67
2022-09-02T03:43:04.751Z,8.66
2022-09-02T03:45:31.473Z,8.65
2022-09-02T03:47:58.252Z,8.61
2022-09-02T03:50:27.030Z,8.45
2022-09-02T03:52:53.592Z,8.40
2022-09-02T03:55:20.572Z,8.38
2022-09-02T03:57:48.553Z,8.28
2022-09-02T04:00:17.609Z,8.30
2022-09-02T04:02:44.526Z,8.28
2022-09-02T04:05:17.300Z,8.22
2022-09-02T04:07:44.012Z,8.36
2022-09-02T04:10:14.528Z,8.26
2022-09-02T04:12:41.253Z,8.23
2022-09-02T04:15:11.848Z,8.31
2022-09-02T04:17:40.086Z,8.32
2022-09-02T04:20:10.024Z,8.37
2022-09-02T04:22:36.873Z,8.33
2022-09-02T04:25:05.074Z,8.41
2022-09-02T04:27:31.673Z,8.34
2022-09-02T04:29:58.315Z,8.28
2022-09-02T04:32:26.192Z,8.34
2022-09-02T04:34:52.761Z,8.34
2022-09-02T04:37:19.331Z,8.33
2022-09-02T04:39:45.889Z,8.35
2022-09-02T04:42:12.432Z,8.35
2022-09-02T04:44:38.994Z,8.34
2022-09-02T04:47:05.613Z,8.29
2022-09-02T04:49:33.469Z,8.26
2022-09-02T04:52:00.536Z,8.39
2022-09-02T04:54:27.435Z,8.29
2022-09-02T04:56:54.039Z,8.40
2022-09-02T04:59:20.620Z,8.46
2022-09-02T05:01:47.976Z,8.51
2022-09-02T05:04:14.609Z,8.55
2022-09-02T05:06:44.570Z,8.45
2022-09-02T05:09:11.452Z,8.58
2022-09-02T05:11:38.022Z,8.47
2022-09-02T05:14:06.663Z,8.65
2022-09-02T05:16:35.864Z,8.71
2022-09-02T05:19:03.732Z,8.48
2022-09-02T05:21:30.394Z,8.58
2022-09-02T05:23:58.594Z,8.69
2022-09-02T05:26:25.478Z,8.60
2022-09-02T05:28:52.034Z,8.63
2022-09-02T05:31:20.815Z,8.73
2022-09-02T05:33:48.077Z,8.76
2022-09-02T05:36:17.065Z,8.88
2022-09-02T05:38:44.739Z,9.04
2022-09-02T05:41:14.809Z,8.93
2022-09-02T05:43:42.489Z,9.06
2022-09-02T05:46:11.078Z,9.17
2022-09-02T05:48:38.801Z,9.33
2022-09-02T05:51:07.342Z,9.43
2022-09-02T05:53:33.887Z,9.56
2022-09-02T05:56:03.967Z,9.92
2022-09-02T05:58:31.921Z,9.98
2022-09-02T06:00:58.510Z,10.27
2022-09-02T06:03:25.249Z,10.50
2022-09-02T06:05:56.252Z,10.86
2022-09-02T06:08:22.865Z,11.18
2022-09-02T06:10:50.522Z,11.96
2022-09-02T06:13:17.437Z,12.13
2022-09-02T06:15:45.392Z,12.23
2022-09-02T06:18:12.529Z,12.19
2022-09-02T06:20:41.596Z,12.72
2022-09-02T06:23:08.415Z,13.08
2022-09-02T06:25:36.505Z,13.53
2022-09-02T06:28:07.187Z,13.39
2022-09-02T06:30:34.847Z,13.58
2022-09-02T06:33:02.742Z,13.46
2022-09-02T06:35:29.661Z,13.77
2022-09-02T06:37:56.227Z,14.00
2022-09-02T06:40:22.802Z,14.02
2022-09-02T06:42:49.447Z,14.31
2022-09-02T06:45:16.333Z,14.13
2022-09-02T06:47:42.860Z,14.19
2022-09-02T06:50:10.788Z,14.58
2022-09-02T06:52:37.595Z,14.74
2022-09-02T06:55:04.814Z,14.90
2022-09-02T06:57:34.357Z,14.97
2022-09-02T07:00:01.946Z,15.23
2022-09-02T07:02:29.121Z,15.37
2022-09-02T07:04:57.615Z,15.25
2022-09-02T07:07:26.116Z,15.51
2022-09-02T07:09:52.677Z,15.66
2022-09-02T07:12:19.898Z,15.91
2022-09-02T07:14:46.480Z,16.14
2022-09-02T07:17:15.156Z,16.23
2022-09-02T07:19:41.711Z,16.49
2022-09-02T07:22:08.261Z,16.76
2022-09-02T07:24:37.216Z,16.73
2022-09-02T07:27:04.417Z,16.94
2022-09-02T07:29:31.212Z,17.17
2022-09-02T07:31:58.221Z,17.46
2022-09-02T07:34:25.445Z,17.48
2022-09-02T07:36:52.003Z,17.43
2022-09-02T07:39:19.598Z,17.55
2022-09-02T07:41:50.326Z,17.59
2022-09-02T07:44:18.124Z,17.85
2022-09-02T07:46:44.699Z,17.84
2022-09-02T07:49:14.269Z,17.93
2022-09-02T07:51:44.030Z,18.02
2022-09-02T07:54:12.237Z,18.09
2022-09-02T07:56:39.041Z,18.34
2022-09-02T07:59:06.909Z,18.57
2022-09-02T08:01:33.603Z,18.83
2022-09-02T08:04:02.733Z,18.88
2022-09-02T08:06:34.607Z,18.80
2022-09-02T08:09:02.263Z,18.89
2022-09-02T08:11:28.833Z,18.73
2022-09-02T08:13:55.495Z,18.90
2022-09-02T08:16:23.844Z,18.80
2022-09-02T08:18:50.612Z,18.92
2022-09-02T08:21:17.207Z,19.05
2022-09-02T08:23:44.303Z,18.86
2022-09-02T08:26:11.129Z,18.84
2022-09-02T08:28:37.754Z,19.04
2022-09-02T08:31:06.176Z,18.86
2022-09-02T08:33:34.605Z,18.97
2022-09-02T08:36:03.828Z,19.10
2022-09-02T08:38:30.502Z,19.15
2022-09-02T08:40:57.135Z,19.41
2022-09-02T08:43:30.638Z,19.27
2022-09-02T08:45:59.973Z,19.55
2022-09-02T08:48:37.736Z,19.69
2022-09-02T08:51:09.921Z,19.89
2022-09-02T08:53:45.428Z,19.92
2022-09-02T08:56:16.538Z,20.05
2022-09-02T08:58:45.574Z,20.07
2022-09-02T09:01:20.971Z,19.75
2022-09-02T09:04:05.819Z,19.84
2022-09-02T09:06:41.898Z,19.83
2022-09-02T09:09:19.740Z,19.72
2022-09-02T09:11:56.019Z,19.73
2022-09-02T09:14:29.970Z,19.81
2022-09-02T09:16:59.436Z,20.02
2022-09-02T09:19:37.580Z,20.09
2022-09-02T09:22:04.468Z,20.12
2022-09-02T09:24:36.045Z,20.04
2022-09-02T09:27:05.981Z,20.04
2022-09-02T09:29:33.154Z,20.09
2022-09-02T09:32:00.907Z,20.02
2022-09-02T09:34:56.769Z,20.09
2022-09-02T09:37:33.869Z,20.04
2022-09-02T09:40:22.892Z,19.81
2022-09-02T09:42:53.707Z,19.67
2022-09-02T09:45:25.631Z,19.63
2022-09-02T09:48:18.893Z,19.47
2022-09-02T09:50:48.685Z,19.72
2022-09-02T09:53:19.141Z,19.92
2022-09-02T09:55:54.174Z,19.98
2022-09-02T09:58:22.660Z,19.88
2022-09-02T10:00:51.054Z,19.95
2022-09-02T10:03:23.638Z,20.17
2022-09-02T10:05:54.630Z,20.20
2022-09-02T10:08:22.691Z,20.39
2022-09-02T10:10:58.613Z,20.41
2022-09-02T10:13:28.794Z,20.66
2022-09-02T10:16:06.917Z,20.75
2022-09-02T10:18:39.486Z,20.67
2022-09-02T10:21:17.561Z,20.38
2022-09-02T10:23:49.940Z,20.47
2022-09-02T10:29:31.513Z,20.32
2022-09-02T10:32:18.280Z,20.45
2022-09-02T10:34:54.383Z,20.50
2022-09-02T10:37:24.551Z,20.44
2022-09-02T10:40:07.624Z,20.39
2022-09-02T10:42:42.415Z,20.25
2022-09-02T10:45:15.063Z,20.17
2022-09-02T10:47:42.112Z,20.33
2022-09-02T10:50:16.410Z,20.03
2022-09-02T10:53:17.474Z,19.93
2022-09-02T10:55:54.369Z,19.80
2022-09-02T10:58:29.086Z,20.01
2022-09-02T11:00:57.236Z,20.15
2022-09-02T11:03:29.555Z,20.21
2022-09-02T11:06:03.121Z,20.21
2022-09-02T11:08:38.712Z,20.20
2022-09-02T11:11:09.325Z,20.28
2022-09-02T11:13:41.217Z,20.51
2022-09-02T11:16:11.873Z,20.62
2022-09-02T11:18:44.986Z,20.58
2022-09-02T11:21:31.853Z,20.56
2022-09-02T11:24:06.825Z,20.57
2022-09-02T11:26:37.466Z,20.63
2022-09-02T11:29:11.273Z,20.66
2022-09-02T11:31:43.218Z,20.69
2022-09-02T11:34:18.937Z,20.61
2022-09-02T11:36:45.843Z,20.50
2022-09-02T11:39:35.942Z,20.65
2022-09-02T11:42:19.601Z,20.74
2022-09-02T11:45:16.371Z,20.61
2022-09-02T11:48:01.147Z,20.47
2022-09-02T11:50:43.320Z,20.57
2022-09-02T11:53:21.100Z,20.54
2022-09-02T11:55:52.477Z,20.66
2022-09-02T11:58:38.033Z,20.73
2022-09-02T12:01:24.398Z,20.71
2022-09-02T12:07:26.708Z,20.80
2022-09-02T12:09:59.221Z,20.83
2022-09-02T12:13:02.193Z,20.69
2022-09-02T12:15:29.269Z,20.68
2022-09-02T12:18:29.022Z,20.50
2022-09-02T12:21:07.418Z,20.77
2022-09-02T12:24:19.485Z,20.76
2022-09-02T12:27:08.155Z,20.90
2022-09-02T12:29:35.166Z,20.96
2022-09-02T12:32:01.989Z,20.98
2022-09-02T12:34:53.843Z,21.04
2022-09-02T12:37:55.705Z,21.02
2022-09-02T12:40:36.208Z,20.80
2022-09-02T12:43:07.318Z,20.76
2022-09-02T12:45:41.353Z,20.99
2022-09-02T12:48:13.291Z,21.11
2022-09-02T12:50:54.680Z,21.16
2022-09-02T12:53:35.429Z,21.19
2022-09-02T12:56:05.060Z,21.17
2022-09-02T12:58:35.518Z,21.22
2022-09-02T13:01:14.245Z,21.22
2022-09-02T13:04:04.694Z,21.31
2022-09-02T13:06:41.284Z,21.30
2022-09-02T13:09:50.766Z,21.42
2022-09-02T13:12:41.517Z,21.21
2022-09-02T13:15:25.519Z,21.47
2022-09-02T13:18:24.997Z,21.57
2022-09-02T13:21:15.724Z,21.52
2022-09-02T13:23:53.747Z,21.57
2022-09-02T13:26:53.733Z,21.44
2022-09-02T13:30:00.166Z,21.43
2022-09-02T13:32:29.056Z,21.19
2022-09-02T13:34:59.349Z,21.02
2022-09-02T13:37:31.295Z,21.09
2022-09-02T13:39:58.648Z,21.11
2022-09-02T13:42:26.762Z,21.17
2022-09-02T13:45:18.609Z,21.18
2022-09-02T13:47:46.872Z,21.04
2022-09-02T13:50:16.972Z,21.04
2022-09-02T13:53:49.130Z,21.07
2022-09-02T13:55:33.724Z,21.19
2022-09-02T13:58:02.920Z,21.13
2022-09-02T14:00:35.503Z,21.09
2022-09-02T14:03:04.862Z,21.18
2022-09-02T14:05:33.438Z,21.01
2022-09-02T14:08:02.420Z,20.93
2022-09-02T14:10:29.608Z,21.02
2022-09-02T14:12:56.948Z,21.25
2022-09-02T14:15:25.802Z,21.36
2022-09-02T14:18:11.679Z,21.42
2022-09-02T14:21:00.397Z,21.53
2022-09-02T14:23:30.789Z,21.53
2022-09-02T14:25:59.110Z,21.49
2022-09-02T14:28:28.000Z,21.34
2022-09-02T14:30:57.963Z,21.26
2022-09-02T14:33:36.517Z,21.34
2022-09-02T14:36:05.502Z,21.25
2022-09-02T14:38:36.684Z,21.05
2022-09-02T14:41:05.481Z,21.04
2022-09-02T14:43:42.381Z,21.09
2022-09-02T14:46:24.452Z,21.17
2022-09-02T14:48:56.869Z,21.26
2022-09-02T14:51:31.147Z,21.21
2022-09-02T14:53:57.671Z,21.37
2022-09-02T14:56:49.827Z,21.34
2022-09-02T14:59:16.728Z,21.29
2022-09-02T15:01:46.165Z,21.32
2022-09-02T15:04:15.322Z,21.28
2022-09-02T15:06:42.800Z,21.18
2022-09-02T15:09:09.745Z,21.10
2022-09-02T15:11:38.113Z,20.94
2022-09-02T15:14:04.652Z,20.86
2022-09-02T15:16:31.194Z,20.91
2022-09-02T15:18:57.753Z,20.89
2022-09-02T15:21:25.645Z,21.03
2022-09-02T15:23:52.232Z,21.06
2022-09-02T15:26:18.754Z,21.12
2022-09-02T15:28:45.268Z,21.25
2022-09-02T15:31:11.909Z,21.16
2022-09-02T15:33:38.486Z,21.13
2022-09-02T15:36:06.217Z,21.02
2022-09-02T15:38:34.520Z,20.82
2022-09-02T15:41:11.232Z,20.90
2022-09-02T15:43:37.735Z,21.00
2022-09-02T15:46:15.834Z,20.96
2022-09-02T15:48:42.353Z,20.99
2022-09-02T15:51:10.922Z,20.99
2022-09-02T15:53:40.983Z,21.03
2022-09-02T15:56:16.032Z,21.12
2022-09-02T15:58:42.542Z,21.03
2022-09-02T16:01:09.115Z,21.09
2022-09-02T16:03:36.302Z,21.02
2022-09-02T16:06:03.761Z,21.01
2022-09-02T16:08:30.296Z,20.93
2022-09-02T16:11:03.836Z,20.89
2022-09-02T16:13:30.511Z,20.83
2022-09-02T16:16:00.853Z,20.74
2022-09-02T16:18:27.362Z,20.61
2022-09-02T16:20:53.884Z,20.62
2022-09-02T16:23:20.413Z,20.62
2022-09-02T16:25:46.952Z,20.82
2022-09-02T16:28:14.814Z,20.79
2022-09-02T16:30:46.265Z,20.75
2022-09-02T16:33:13.126Z,20.66
2022-09-02T16:35:39.651Z,20.56
2022-09-02T16:38:06.152Z,20.31
2022-09-02T16:40:32.681Z,20.25
2022-09-02T16:42:59.181Z,20.38
2022-09-02T16:45:27.105Z,20.27
2022-09-02T16:47:53.609Z,20.26
2022-09-02T16:50:20.136Z,20.20
2022-09-02T16:52:46.640Z,20.13
2022-09-02T16:55:13.156Z,20.05
2022-09-02T16:57:39.680Z,20.00
2022-09-02T17:00:07.431Z,20.01
2022-09-02T17:02:35.461Z,19.97
2022-09-02T17:05:02.091Z,19.95
2022-09-02T17:07:28.617Z,19.99
2022-09-02T17:09:55.120Z,20.00
2022-09-02T17:12:21.644Z,20.03
2022-09-02T17:14:48.302Z,19.89
2022-09-02T17:20:39.140Z,19.70
2022-09-02T17:23:05.665Z,19.69
2022-09-02T17:25:32.182Z,19.59
2022-09-02T17:27:58.826Z,19.26
2022-09-02T17:30:25.443Z,19.14
2022-09-02T17:32:56.327Z,19.07
2022-09-02T17:35:23.133Z,18.81
2022-09-02T17:37:51.012Z,18.63
2022-09-02T17:40:17.634Z,18.58
2022-09-02T17:42:44.179Z,18.35
2022-09-02T17:45:10.706Z,18.25
2022-09-02T17:47:37.251Z,18.27
2022-09-02T17:50:04.153Z,18.17
2022-09-02T17:52:30.701Z,18.17
2022-09-02T17:54:58.565Z,17.85
2022-09-02T17:57:58.751Z,17.84
2022-09-02T18:00:28.005Z,17.83
2022-09-02T18:03:23.567Z,17.71
2022-09-02T18:05:55.972Z,17.58
2022-09-02T18:08:32.122Z,17.57
2022-09-02T18:11:01.577Z,17.48
2022-09-02T18:13:34.036Z,17.46
2022-09-02T18:16:20.790Z,17.25
2022-09-02T18:18:55.392Z,17.13
2022-09-02T18:21:27.664Z,17.09
2022-09-02T18:24:03.461Z,16.92
2022-09-02T18:26:45.176Z,16.76
2022-09-02T18:29:26.211Z,16.67
2022-09-02T18:32:00.781Z,16.67
2022-09-02T18:34:45.051Z,16.54
2022-09-02T18:37:22.189Z,16.40
2022-09-02T18:40:03.866Z,16.36
2022-09-02T18:42:43.073Z,16.22
2022-09-02T18:45:21.616Z,16.07
2022-09-02T18:47:53.598Z,16.04
2022-09-02T18:50:47.220Z,16.04
2022-09-02T18:53:13.837Z,16.05
2022-09-02T18:55:40.897Z,15.85
2022-09-02T18:58:13.383Z,15.72
2022-09-02T19:00:46.530Z,15.72
2022-09-02T19:03:13.124Z,15.73
2022-09-02T19:05:39.688Z,15.64
2022-09-02T19:08:08.456Z,15.61
2022-09-02T19:10:34.970Z,15.61
2022-09-02T19:13:01.673Z,15.51
2022-09-02T19:15:29.574Z,15.32
2022-09-02T19:17:56.336Z,15.35
2022-09-02T19:20:22.911Z,15.10
2022-09-02T19:22:53.449Z,14.98
2022-09-02T19:25:22.997Z,14.98
2022-09-02T19:27:51.053Z,14.98
2022-09-02T19:30:19.049Z,14.82
2022-09-02T19:32:49.287Z,14.67
2022-09-02T19:35:19.173Z,14.62
2022-09-02T19:37:47.581Z,14.64
2022-09-02T19:40:21.466Z,14.43
2022-09-02T19:42:48.000Z,14.47
2022-09-02T19:45:16.583Z,14.36
2022-09-02T19:48:05.965Z,14.24
2022-09-02T19:50:32.080Z,14.22
2022-09-02T19:52:58.833Z,14.11
2022-09-02T19:55:25.542Z,13.88
2022-09-02T19:57:52.061Z,13.88
2022-09-02T20:00:18.960Z,13.88
2022-09-02T20:02:45.505Z,13.84
2022-09-02T20:05:13.663Z,13.78
2022-09-02T20:07:41.567Z,13.69
2022-09-02T20:10:09.392Z,13.73
2022-09-02T20:12:36.251Z,13.74
2022-09-02T20:15:03.465Z,13.68
2022-09-02T20:17:30.497Z,13.54
2022-09-02T20:19:58.175Z,13.50
2022-09-02T20:22:24.794Z,13.55
2022-09-02T20:24:52.727Z,13.47
2022-09-02T20:27:32.343Z,13.48
2022-09-02T20:30:06.029Z,13.47
2022-09-02T20:32:42.816Z,13.52
2022-09-02T20:35:21.757Z,13.45
2022-09-02T20:37:54.215Z,13.47
2022-09-02T20:40:36.394Z,13.38
2022-09-02T20:43:38.277Z,13.32
2022-09-02T20:46:15.540Z,13.23
2022-09-02T20:48:55.284Z,13.25
2022-09-02T20:51:26.325Z,13.20
2022-09-02T20:54:07.262Z,13.02
2022-09-02T20:56:43.675Z,13.02
2022-09-02T20:59:23.151Z,13.04
2022-09-02T21:01:57.124Z,13.08
2022-09-02T21:04:32.585Z,12.97
2022-09-02T21:07:04.520Z,12.95
2022-09-02T21:09:38.304Z,12.83
2022-09-02T21:12:16.102Z,12.79
2022-09-02T21:14:46.505Z,12.63
2022-09-02T21:17:19.623Z,12.68
2022-09-02T21:19:53.493Z,12.68
2022-09-02T21:22:24.753Z,12.76
2022-09-02T21:24:55.654Z,12.77
2022-09-02T21:27:27.672Z,12.74
2022-09-02T21:30:02.302Z,12.70
2022-09-02T21:32:34.379Z,12.73
2022-09-02T21:35:03.736Z,12.71
2022-09-02T21:37:32.993Z,12.62
2022-09-02T21:40:03.351Z,12.54
2022-09-02T21:42:46.286Z,12.51
2022-09-02T21:45:20.749Z,12.46
2022-09-02T21:47:56.277Z,12.39
2022-09-02T21:50:28.696Z,12.40
2022-09-02T21:53:12.873Z,12.18
2022-09-02T21:55:53.602Z,12.10
2022-09-02T21:58:44.132Z,12.05
2022-09-02T22:01:19.165Z,12.00
2022-09-02T22:03:50.258Z,11.93
2022-09-02T22:06:26.034Z,11.82
2022-09-02T22:08:59.060Z,11.82
2022-09-02T22:11:34.184Z,11.89
2022-09-02T22:14:10.726Z,11.78
2022-09-02T22:16:45.634Z,11.96
2022-09-02T22:19:12.359Z,11.99
2022-09-02T22:21:44.718Z,11.93
2022-09-02T22:24:11.254Z,11.78
2022-09-02T22:26:40.619Z,11.69
2022-09-02T22:29:16.161Z,11.69
2022-09-02T22:31:45.576Z,11.65
2022-09-02T22:34:15.366Z,11.71
2022-09-02T22:36:52.253Z,11.63
2022-09-02T22:39:20.676Z,11.67
2022-09-02T22:41:55.341Z,11.65
2022-09-02T22:44:31.828Z,11.59
2022-09-02T22:47:03.528Z,11.40
2022-09-02T22:49:35.909Z,11.23
2022-09-02T22:52:08.396Z,11.37
2022-09-02T22:54:34.918Z,11.42
2022-09-02T22:57:10.064Z,11.32
2022-09-02T22:59:46.762Z,11.33
2022-09-02T23:02:20.180Z,11.42
2022-09-02T23:05:09.442Z,11.45
2022-09-02T23:07:35.994Z,11.42
2022-09-02T23:10:14.233Z,11.45
2022-09-02T23:12:46.918Z,11.44
2022-09-02T23:15:23.263Z,11.42
2022-09-02T23:17:59.369Z,11.37
2022-09-02T23:20:32.679Z,11.44
2022-09-02T23:23:14.229Z,11.34
2022-09-02T23:25:57.419Z,11.30
2022-09-02T23:31:02.708Z,11.25
2022-09-02T23:33:42.962Z,11.19
2022-09-02T23:36:16.565Z,11.24
2022-09-02T23:39:01.446Z,11.17
2022-09-02T23:41:28.011Z,11.14
2022-09-02T23:43:55.238Z,11.06
2022-09-02T23:46:32.960Z,10.96
2022-09-02T23:49:08.706Z,10.94
2022-09-02T23:51:40.930Z,11.01
2022-09-02T23:54:21.664Z,11.10
2022-09-02T23:57:00.901Z,11.08
2022-09-02T23:59:47.317Z,11.05
